Time;durP1;ratioP1;P1;durP2;ratioP2;P2;SDS_P1;SDS_P2;PMS_P1;PMS_P2;Temp;Humidity;BMP_temperature;BMP_pressure;BME280_temperature;BME280_humidity;BME280_pressure;Samples;Min_cycle;Max_cycle;Signal;HPM_P1;HPM_P2
2024/02/12 00:01:58;;;;;;;7.22;3.42;;;;;;;16.26;51.87;99493.59;4936015;29;20027;-64
2024/02/12 00:04:26;;;;;;;7.30;3.58;;;;;;;16.25;51.97;99491.91;4934945;29;20039;-63
2024/02/12 00:06:52;;;;;;;10.85;5.63;;;;;;;16.23;50.84;99493.97;4936101;29;20051;-64
2024/02/12 00:09:18;;;;;;;10.75;4.53;;;;;;;16.24;51.78;99498.38;4935052;29;20555;-64
2024/02/12 00:11:43;;;;;;;6.57;3.80;;;;;;;16.24;50.88;99503.78;4919088;29;20114;-64
2024/02/12 00:14:08;;;;;;;8.20;4.78;;;;;;;16.22;51.47;99508.53;4934849;29;20475;-64
2024/02/12 00:16:34;;;;;;;10.15;4.88;;;;;;;16.21;50.74;99517.69;4934918;29;20054;-64
2024/02/12 00:19:00;;;;;;;8.90;4.68;;;;;;;16.19;51.73;99519.75;4918952;29;20039;-63
2024/02/12 00:21:28;;;;;;;11.07;4.72;;;;;;;16.21;50.66;99514.97;4935672;29;20028;-64
2024/02/12 00:23:55;;;;;;;11.05;5.75;;;;;;;16.19;51.09;99512.44;4934900;29;20035;-64
2024/02/12 00:26:25;;;;;;;10.38;5.78;;;;;;;16.20;50.69;99516.84;4936108;29;20055;-64
2024/02/12 00:28:56;;;;;;;9.35;4.70;;;;;;;16.19;51.83;99530.56;4934918;29;20110;-65
2024/02/12 00:31:22;;;;;;;10.50;5.30;;;;;;;16.17;51.50;99533.44;4917484;29;20064;-63
2024/02/12 00:33:48;;;;;;;11.48;5.40;;;;;;;16.16;51.99;99530.94;4938418;28;20059;-64
2024/02/12 00:36:17;;;;;;;11.32;5.50;;;;;;;16.15;51.29;99540.06;4918376;29;20507;-65
2024/02/12 00:38:43;;;;;;;8.10;5.40;;;;;;;16.14;51.12;99536.53;4901216;29;20028;-65
2024/02/12 00:41:12;;;;;;;9.90;5.63;;;;;;;16.14;52.38;99533.84;4919024;29;20408;-64
2024/02/12 00:43:40;;;;;;;13.30;6.00;;;;;;;16.14;51.15;99549.19;4934169;29;20395;-64
2024/02/12 00:46:05;;;;;;;9.25;5.88;;;;;;;16.12;51.18;99544.00;4935565;29;20442;-64
2024/02/12 00:48:31;;;;;;;9.80;6.15;;;;;;;16.12;51.81;99551.28;4935715;29;20556;-64
2024/02/12 00:50:57;;;;;;;13.27;5.70;;;;;;;16.07;51.20;99553.72;4934141;29;20031;-64
2024/02/12 00:53:22;;;;;;;14.98;6.72;;;;;;;16.08;52.06;99567.03;4950269;29;20503;-63
2024/02/12 00:55:49;;;;;;;14.57;6.25;;;;;;;16.08;51.82;99571.63;4934550;29;20090;-65
2024/02/12 00:58:14;;;;;;;11.82;6.28;;;;;;;16.06;51.64;99570.97;4934755;29;20190;-64
2024/02/12 01:00:40;;;;;;;10.90;6.20;;;;;;;16.02;51.83;99580.50;4934467;29;20499;-63
2024/02/12 01:03:05;;;;;;;13.98;7.53;;;;;;;16.00;51.62;99577.13;4934221;29;20127;-64
2024/02/12 01:05:31;;;;;;;15.88;7.05;;;;;;;16.00;51.97;99579.84;4934434;29;20040;-64
2024/02/12 01:07:56;;;;;;;13.82;7.45;;;;;;;16.01;52.11;99586.91;4939234;29;20039;-64
2024/02/12 01:10:22;;;;;;;16.90;8.13;;;;;;;16.04;52.29;99586.53;4938612;29;20125;-64
2024/02/12 01:12:47;;;;;;;17.25;7.20;;;;;;;16.06;52.64;99606.06;4937890;29;20046;-64
2024/02/12 01:15:13;;;;;;;15.52;7.55;;;;;;;16.02;51.45;99594.00;4955053;29;20032;-64
2024/02/12 01:17:40;;;;;;;14.10;7.68;;;;;;;15.99;51.49;99589.00;4940812;29;20036;-64
2024/02/12 01:20:11;;;;;;;18.15;7.72;;;;;;;16.01;51.79;99605.81;4939567;29;20118;-64
2024/02/12 01:22:39;;;;;;;13.93;8.07;;;;;;;16.01;51.18;99613.94;4938839;29;20042;-63
2024/02/12 01:25:05;;;;;;;17.45;8.88;;;;;;;16.03;51.90;99611.88;4940404;29;20048;-65
2024/02/12 01:27:31;;;;;;;18.63;8.88;;;;;;;16.05;51.84;99616.03;4942158;29;20398;-64
2024/02/12 01:29:56;;;;;;;19.48;8.68;;;;;;;16.04;51.89;99619.78;4925659;29;20442;-64
2024/02/12 01:32:22;;;;;;;17.02;8.43;;;;;;;16.05;52.18;99615.22;4939952;29;20120;-64
2024/02/12 01:34:47;;;;;;;19.73;9.40;;;;;;;16.09;51.71;99621.91;4939139;29;20122;-64
2024/02/12 01:37:13;;;;;;;20.50;9.40;;;;;;;16.09;51.22;99613.78;4937829;29;20043;-65
2024/02/12 01:39:38;;;;;;;17.90;8.13;;;;;;;16.09;52.21;99616.50;4937932;29;20039;-64
2024/02/12 01:42:13;;;;;;;18.25;8.95;;;;;;;16.10;51.62;99615.47;4943202;29;20043;-64
2024/02/12 01:45:11;;;;;;;17.40;8.25;;;;;;;16.12;51.22;99618.81;4937766;29;20032;-64
2024/02/12 01:47:38;;;;;;;19.75;8.43;;;;;;;16.10;51.38;99620.88;4934931;29;20070;-65
2024/02/12 01:50:05;;;;;;;20.65;8.88;;;;;;;16.09;52.23;99632.69;4938176;29;20526;-63
2024/02/12 01:52:31;;;;;;;30.58;9.35;;;;;;;16.05;51.58;99620.63;4940452;29;20054;-64
2024/02/12 01:54:57;;;;;;;18.50;9.48;;;;;;;16.04;52.32;99621.66;4940849;29;20495;-64
2024/02/12 01:57:25;;;;;;;16.65;8.73;;;;;;;16.02;51.78;99627.25;4938847;29;20032;-64
2024/02/12 01:59:51;;;;;;;19.38;8.60;;;;;;;16.00;51.89;99629.28;4953273;29;20072;-64
2024/02/12 02:02:16;;;;;;;17.08;8.02;;;;;;;16.00;52.59;99633.84;4921291;29;20550;-64
2024/02/12 02:04:42;;;;;;;21.48;8.85;;;;;;;15.99;52.19;99627.66;4938501;29;20511;-64
2024/02/12 02:07:24;;;;;;;16.05;8.60;;;;;;;15.98;52.18;99625.13;4937003;29;20078;-64
2024/02/12 02:09:53;;;;;;;16.67;8.27;;;;;;;15.95;52.00;99620.09;4921542;28;20042;-64
2024/02/12 02:12:18;;;;;;;19.50;8.23;;;;;;;15.94;51.19;99634.66;4952530;29;20020;-63
2024/02/12 02:14:44;;;;;;;16.27;8.23;;;;;;;15.86;52.26;99626.66;4938170;29;20035;-66
2024/02/12 02:17:10;;;;;;;14.52;8.40;;;;;;;15.89;51.34;99631.66;4936179;29;20397;-64
2024/02/12 02:19:35;;;;;;;17.35;7.28;;;;;;;15.85;52.25;99633.09;4936208;28;20032;-64
2024/02/12 02:22:02;;;;;;;16.30;7.65;;;;;;;15.87;52.48;99649.94;4920565;29;20035;-65
2024/02/12 02:24:28;;;;;;;17.67;8.25;;;;;;;15.87;51.83;99644.53;4936700;29;20019;-64
2024/02/12 02:26:54;;;;;;;18.60;8.77;;;;;;;15.86;51.32;99650.97;4936515;29;20028;-64
2024/02/12 02:29:19;;;;;;;19.25;8.55;;;;;;;15.87;51.45;99649.94;4936590;29;20027;-64
2024/02/12 02:31:46;;;;;;;18.27;7.70;;;;;;;15.85;51.42;99655.53;4937512;28;20023;-64
2024/02/12 02:34:11;;;;;;;15.70;7.30;;;;;;;15.84;51.28;99650.31;4937577;29;20509;-64
2024/02/12 02:36:37;;;;;;;18.48;7.38;;;;;;;15.81;51.46;99651.53;4937779;29;20034;-63
2024/02/12 02:39:03;;;;;;;15.80;7.20;;;;;;;15.80;51.48;99655.25;4936485;29;20028;-64
2024/02/12 02:41:30;;;;;;;12.80;7.30;;;;;;;15.82;52.03;99674.00;4936497;29;20046;-64
2024/02/12 02:43:55;;;;;;;16.75;8.20;;;;;;;15.80;52.18;99666.06;4936095;28;20040;-64
2024/02/12 02:46:26;;;;;;;13.30;7.47;;;;;;;15.80;52.13;99663.34;4936656;29;20094;-64
2024/02/12 02:48:53;;;;;;;16.23;7.97;;;;;;;15.81;51.65;99667.75;4936249;29;20036;-64
2024/02/12 02:51:29;;;;;;;14.57;7.90;;;;;;;15.82;52.47;99665.88;4936277;29;20027;-65
2024/02/12 02:53:55;;;;;;;18.17;7.07;;;;;;;15.80;52.11;99666.06;4936197;29;20067;-65
2024/02/12 02:56:21;;;;;;;17.85;8.35;;;;;;;15.82;51.46;99668.59;4936097;29;20078;-64
2024/02/12 02:58:47;;;;;;;16.20;8.52;;;;;;;15.84;51.14;99674.63;4920052;29;20028;-63
2024/02/12 03:01:13;;;;;;;17.80;8.10;;;;;;;15.82;51.61;99665.88;4936034;29;20035;-64
2024/02/12 03:03:38;;;;;;;15.18;8.13;;;;;;;15.82;51.59;99674.84;4938437;29;20086;-64
2024/02/12 03:06:05;;;;;;;18.40;8.80;;;;;;;15.81;51.37;99672.31;4938364;29;20483;-64
2024/02/12 03:08:34;;;;;;;15.27;7.70;;;;;;;15.80;52.40;99686.84;4935990;29;20035;-64
2024/02/12 03:11:01;;;;;;;17.05;7.90;;;;;;;15.81;52.04;99689.34;4935774;29;20063;-64
2024/02/12 03:13:27;;;;;;;12.77;7.32;;;;;;;15.80;51.32;99676.88;4935773;29;20035;-64
2024/02/12 03:15:52;;;;;;;16.48;7.45;;;;;;;15.81;51.83;99693.91;4935553;29;20087;-63
2024/02/12 03:18:20;;;;;;;19.30;7.43;;;;;;;15.83;52.05;99706.19;4935513;29;20067;-64
2024/02/12 03:20:45;;;;;;;20.45;8.23;;;;;;;15.81;51.91;99699.31;4935833;29;20498;-64
2024/02/12 03:23:11;;;;;;;17.67;7.85;;;;;;;15.78;51.34;99695.13;4935511;29;20091;-64
2024/02/12 03:25:36;;;;;;;18.15;7.53;;;;;;;15.82;52.05;99711.78;4935576;29;20075;-64
2024/02/12 03:28:03;;;;;;;16.73;8.02;;;;;;;15.81;52.15;99704.72;4935364;29;20089;-65
2024/02/12 03:30:28;;;;;;;14.40;8.25;;;;;;;15.82;51.76;99717.19;4935204;29;20039;-64
2024/02/12 03:32:55;;;;;;;16.65;8.15;;;;;;;15.83;51.92;99713.47;4935082;29;20058;-64
2024/02/12 03:35:21;;;;;;;20.67;9.45;;;;;;;15.82;52.08;99723.44;4936491;29;20040;-64
2024/02/12 03:37:46;;;;;;;19.42;8.05;;;;;;;15.80;51.10;99714.66;4935357;29;20110;-64
2024/02/12 03:40:13;;;;;;;19.33;8.18;;;;;;;15.80;51.28;99719.25;4936592;28;20075;-64
2024/02/12 03:42:39;;;;;;;20.50;8.02;;;;;;;15.81;51.50;99729.84;4935147;29;20042;-63
2024/02/12 03:45:05;;;;;;;22.40;9.30;;;;;;;15.81;51.16;99737.97;4935161;29;20040;-64
2024/02/12 03:47:38;;;;;;;19.63;8.20;;;;;;;15.80;51.42;99724.66;4935213;29;20443;-64
2024/02/12 04:01:21;;;;;;;20.45;8.93;;;;;;;15.72;51.21;99745.31;4935191;28;20062;-64
2024/02/12 04:03:49;;;;;;;15.40;8.38;;;;;;;15.73;51.82;99740.78;4935140;29;20104;-64
2024/02/12 04:06:17;;;;;;;18.58;8.02;;;;;;;15.74;50.82;99753.25;4934833;29;20086;-64
2024/02/12 04:08:42;;;;;;;22.38;8.30;;;;;;;15.73;51.37;99756.97;4934912;29;20031;-64
2024/02/12 04:11:09;;;;;;;16.70;8.40;;;;;;;15.73;51.87;99748.88;4935969;28;20028;-64
2024/02/12 04:13:35;;;;;;;17.58;7.43;;;;;;;15.72;52.06;99750.72;4918838;29;20032;-64
2024/02/12 04:16:02;;;;;;;17.40;8.13;;;;;;;15.71;52.24;99753.63;4935994;29;20086;-64
2024/02/12 04:18:30;;;;;;;20.02;8.43;;;;;;;15.71;52.58;99770.66;4934766;29;20031;-64
2024/02/12 04:20:57;;;;;;;19.33;8.40;;;;;;;15.71;52.02;99767.13;4934709;29;20035;-65
2024/02/12 04:23:23;;;;;;;16.77;8.25;;;;;;;15.70;51.26;99771.69;4934828;29;20028;-64
2024/02/12 04:25:50;;;;;;;13.48;6.82;;;;;;;15.70;52.18;99768.97;4934889;29;20175;-64
2024/02/12 04:28:17;;;;;;;14.45;7.32;;;;;;;15.70;51.58;99766.28;4936080;29;20032;-64
2024/02/12 04:30:44;;;;;;;18.58;9.52;;;;;;;15.68;50.95;99765.66;4935708;28;20083;-64
2024/02/12 04:33:09;;;;;;;15.55;6.32;;;;;;;15.69;51.65;99767.28;4935785;29;20043;-64
2024/02/12 04:35:35;;;;;;;12.57;6.78;;;;;;;15.70;51.47;99779.78;4950512;29;20059;-64
2024/02/12 04:38:00;;;;;;;16.20;7.45;;;;;;;15.67;51.03;99774.75;4935701;29;20118;-64
2024/02/12 04:40:26;;;;;;;14.45;7.63;;;;;;;15.68;52.41;99781.84;4935705;29;20043;-64
2024/02/12 04:42:54;;;;;;;18.65;7.43;;;;;;;15.69;51.77;99788.91;4939598;29;20066;-64
2024/02/12 04:45:20;;;;;;;17.63;7.28;;;;;;;15.71;51.48;99794.97;4938495;29;20035;-64
2024/02/12 04:47:47;;;;;;;17.15;8.00;;;;;;;15.68;51.48;99789.94;4938390;29;20031;-64
2024/02/12 04:50:12;;;;;;;15.57;7.55;;;;;;;15.70;51.47;99790.59;4938386;29;20086;-64
2024/02/12 04:52:38;;;;;;;14.43;7.60;;;;;;;15.68;52.01;99795.34;4939456;29;20027;-64
2024/02/12 04:55:03;;;;;;;20.25;8.80;;;;;;;15.65;52.03;99798.41;4954372;29;20031;-64
2024/02/12 04:57:29;;;;;;;14.38;7.22;;;;;;;15.66;51.97;99789.28;4939566;29;20034;-64
2024/02/12 04:59:55;;;;;;;16.92;8.73;;;;;;;15.65;52.35;99789.47;4938215;29;20043;-63
2024/02/12 05:02:21;;;;;;;19.77;8.52;;;;;;;15.64;51.21;99785.94;4938103;29;20039;-64
2024/02/12 05:04:46;;;;;;;17.23;8.52;;;;;;;15.64;51.52;99799.44;4939285;29;20111;-64
2024/02/12 05:07:11;;;;;;;19.00;7.85;;;;;;;15.61;51.04;99791.69;4939286;29;20040;-64
2024/02/12 05:09:37;;;;;;;18.27;8.07;;;;;;;15.62;50.88;99788.00;4938112;29;20028;-64
2024/02/12 05:12:02;;;;;;;21.80;7.78;;;;;;;15.61;51.18;99794.41;4938248;29;20035;-64
2024/02/12 05:14:28;;;;;;;17.45;6.65;;;;;;;15.62;51.57;99798.78;4939376;29;20083;-64
2024/02/12 05:16:59;;;;;;;13.25;7.35;;;;;;;15.60;51.54;99795.44;4938145;29;20451;-65
2024/02/12 05:24:54;;;;;;;17.70;7.05;;;;;;;15.58;51.02;99797.47;4939174;29;20039;-64
2024/02/12 05:27:19;;;;;;;16.02;6.88;;;;;;;15.58;51.87;99802.03;4937769;29;20038;-64
2024/02/12 05:29:45;;;;;;;16.48;7.18;;;;;;;15.58;51.65;99808.25;4937550;29;20119;-64
2024/02/12 05:32:11;;;;;;;14.80;8.60;;;;;;;15.54;51.31;99803.44;4953476;29;20027;-63
2024/02/12 05:34:37;;;;;;;22.33;9.13;;;;;;;15.56;50.77;99807.63;4937434;29;20466;-64
2024/02/12 05:37:02;;;;;;;20.55;7.82;;;;;;;15.55;51.91;99808.63;4921690;29;20063;-64
2024/02/12 05:39:30;;;;;;;14.68;7.40;;;;;;;15.54;51.38;99806.97;4937693;29;20044;-64
2024/02/12 05:41:55;;;;;;;24.83;7.72;;;;;;;15.55;51.62;99803.25;4937298;29;20043;-64
2024/02/12 05:44:20;;;;;;;18.08;7.53;;;;;;;15.57;50.95;99817.41;4939044;29;20036;-64
2024/02/12 05:46:46;;;;;;;19.45;7.63;;;;;;;15.56;51.88;99820.28;4937917;29;20036;-64
2024/02/12 05:49:15;;;;;;;16.92;8.63;;;;;;;15.59;51.35;99814.50;4937494;29;20127;-64
2024/02/12 05:51:43;;;;;;;13.75;7.18;;;;;;;15.57;51.52;99817.41;4937319;29;20521;-64
2024/02/12 05:54:08;;;;;;;16.33;6.95;;;;;;;15.57;51.71;99816.56;4938454;29;20051;-64
2024/02/12 05:56:36;;;;;;;23.23;7.32;;;;;;;15.60;52.19;99816.19;4937247;29;20035;-64
2024/02/12 05:59:02;;;;;;;17.15;7.38;;;;;;;15.62;52.28;99824.94;4938419;29;20083;-64
2024/02/12 06:01:27;;;;;;;16.77;7.47;;;;;;;15.60;51.42;99819.75;4937108;29;20460;-64
2024/02/12 06:03:53;;;;;;;18.75;8.43;;;;;;;15.62;50.73;99825.78;4937159;29;20504;-64
2024/02/12 06:06:18;;;;;;;13.52;6.78;;;;;;;15.55;51.36;99819.44;4937115;29;20043;-64
2024/02/12 06:08:43;;;;;;;19.00;7.22;;;;;;;15.53;51.17;99813.38;4937061;29;20078;-63
2024/02/12 06:11:10;;;;;;;18.05;7.88;;;;;;;15.59;50.84;99826.16;4937065;29;20032;-64
2024/02/12 06:13:35;;;;;;;15.48;8.25;;;;;;;15.58;52.47;99829.00;4936914;29;20058;-64
2024/02/12 06:16:00;;;;;;;23.60;8.48;;;;;;;15.54;52.14;99833.97;4940099;29;20466;-64
2024/02/12 06:18:27;;;;;;;16.40;8.02;;;;;;;15.53;51.17;99836.84;4940744;29;20562;-63
2024/02/12 06:20:53;;;;;;;21.70;7.53;;;;;;;15.51;51.22;99838.91;4940462;29;20122;-65
2024/02/12 06:23:19;;;;;;;19.42;8.82;;;;;;;15.52;51.98;99841.41;4938387;29;20124;-64
2024/02/12 06:25:44;;;;;;;21.15;6.90;;;;;;;15.54;52.13;99846.63;4937048;29;20130;-64
2024/02/12 06:28:10;;;;;;;16.27;7.00;;;;;;;15.49;52.36;99833.69;4920927;29;20368;-64
2024/02/12 06:30:36;;;;;;;16.92;7.22;;;;;;;15.55;52.29;99851.81;4936595;29;20498;-63
2024/02/12 06:33:03;;;;;;;19.88;7.55;;;;;;;15.55;52.34;99851.81;4936267;29;20107;-64
2024/02/12 06:35:29;;;;;;;18.08;7.35;;;;;;;15.57;50.97;99855.19;4936656;29;20067;-64
2024/02/12 06:37:55;;;;;;;23.60;8.07;;;;;;;15.54;51.98;99855.56;4920542;29;20086;-64
2024/02/12 06:40:21;;;;;;;18.63;8.25;;;;;;;15.56;51.20;99853.50;4937883;29;20035;-65
2024/02/12 06:42:47;;;;;;;17.85;7.03;;;;;;;15.57;51.94;99849.81;4936270;29;20032;-64
2024/02/12 06:45:13;;;;;;;14.18;8.10;;;;;;;15.54;51.60;99855.56;4937639;29;20039;-64
2024/02/12 06:47:40;;;;;;;18.13;7.35;;;;;;;15.57;52.11;99860.59;4936260;29;20032;-65
2024/02/12 06:50:05;;;;;;;20.77;7.82;;;;;;;15.58;51.91;99872.22;4935873;29;20051;-64
2024/02/12 06:52:31;;;;;;;20.45;6.60;;;;;;;15.57;52.20;99866.00;4937321;28;20027;-64
2024/02/12 06:54:57;;;;;;;15.80;7.20;;;;;;;15.57;51.92;99868.69;4937359;29;20028;-65
2024/02/12 06:57:24;;;;;;;18.25;7.30;;;;;;;15.59;51.99;99871.19;4934166;29;20034;-64
2024/02/12 06:59:49;;;;;;;22.10;6.53;;;;;;;15.58;52.59;99883.00;4918344;29;20054;-65
2024/02/12 07:02:15;;;;;;;15.63;6.82;;;;;;;15.56;51.50;99891.31;4901101;29;20063;-64
2024/02/12 07:04:41;;;;;;;21.08;6.85;;;;;;;15.56;51.93;99895.84;4916497;29;20028;-64
2024/02/12 07:07:07;;;;;;;15.93;6.30;;;;;;;15.56;51.97;99895.84;4916820;29;20027;-65
2024/02/12 07:09:35;;;;;;;16.38;6.65;;;;;;;15.57;50.92;99911.88;4901043;29;20020;-64
2024/02/12 07:12:00;;;;;;;12.77;5.35;;;;;;;15.56;51.19;99915.59;4901342;29;20016;-63
2024/02/12 07:14:27;;;;;;;14.30;5.60;;;;;;;15.55;51.23;99922.00;4916810;29;20036;-65
2024/02/12 07:16:52;;;;;;;15.82;5.40;;;;;;;15.53;51.63;99918.66;4901305;29;20024;-64
2024/02/12 07:19:17;;;;;;;16.58;5.25;;;;;;;15.49;51.41;99922.75;4916715;29;20392;-64
2024/02/12 07:21:43;;;;;;;13.80;5.90;;;;;;;15.47;51.21;99922.09;4918194;29;20087;-64
2024/02/12 07:24:09;;;;;;;10.13;4.75;;;;;;;15.46;52.32;99925.84;4916990;29;20028;-64
2024/02/12 07:26:35;;;;;;;8.73;5.07;;;;;;;15.46;51.37;99923.13;4918531;28;20020;-64
2024/02/12 07:29:00;;;;;;;13.82;4.82;;;;;;;15.42;51.59;99916.38;4900998;29;20122;-65
2024/02/12 07:31:25;;;;;;;17.92;5.80;;;;;;;15.42;51.24;99927.16;4916824;29;20035;-64
2024/02/12 07:33:51;;;;;;;11.02;5.22;;;;;;;15.38;51.54;99927.72;4917854;29;20056;-64
2024/02/12 07:36:16;;;;;;;9.65;4.22;;;;;;;15.41;50.99;99930.06;4917931;29;20028;-64
2024/02/12 07:38:42;;;;;;;13.50;4.95;;;;;;;15.39;51.89;99937.47;4916666;28;20028;-64
2024/02/12 07:41:08;;;;;;;9.68;4.40;;;;;;;15.38;51.10;99942.03;4917586;29;20031;-64
2024/02/12 07:43:34;;;;;;;10.43;4.53;;;;;;;15.37;51.23;99951.16;4917862;29;20107;-64
2024/02/12 07:46:00;;;;;;;12.98;3.90;;;;;;;15.39;51.77;99953.66;4916771;29;20172;-64
2024/02/12 07:48:26;;;;;;;8.00;3.88;;;;;;;15.42;50.55;99964.09;4900819;29;20245;-64
2024/02/12 07:50:55;;;;;;;12.43;3.60;;;;;;;15.43;51.06;99974.75;4933502;29;20183;-64
2024/02/12 07:53:25;;;;;;;13.70;4.38;;;;;;;15.47;51.12;99973.38;4935530;29;20035;-65
2024/02/12 07:55:53;;;;;;;13.02;4.43;;;;;;;15.50;51.13;99972.16;4935375;29;20035;-64
2024/02/12 07:58:22;;;;;;;12.07;4.57;;;;;;;15.54;51.05;99977.03;4925146;29;20036;-64
2024/02/12 08:00:48;;;;;;;12.45;3.90;;;;;;;15.55;51.56;99973.28;4916694;29;20083;-64
2024/02/12 08:03:17;;;;;;;11.55;5.38;;;;;;;15.55;50.98;99981.41;4916054;29;20397;-64
2024/02/12 08:05:43;;;;;;;13.05;4.15;;;;;;;15.55;51.07;99986.78;4917793;29;20115;-64
2024/02/12 08:08:09;;;;;;;9.40;4.28;;;;;;;15.60;50.71;99989.81;4917634;29;20464;-64
2024/02/12 08:10:34;;;;;;;11.18;3.38;;;;;;;15.66;51.58;100005.25;4917462;29;20527;-64
2024/02/12 08:13:00;;;;;;;13.65;4.97;;;;;;;15.71;51.42;99997.47;4917158;29;20032;-64
2024/02/12 08:15:26;;;;;;;13.30;4.18;;;;;;;15.83;51.09;100002.44;4934170;29;20032;-64
2024/02/12 08:17:54;;;;;;;7.45;3.63;;;;;;;15.85;51.28;100008.47;4934600;29;20064;-64
2024/02/12 08:20:20;;;;;;;9.30;3.83;;;;;;;15.93;50.05;100013.81;4935818;29;20043;-64
2024/02/12 08:22:45;;;;;;;17.50;4.47;;;;;;;16.03;51.21;100017.06;4936124;29;20492;-64
2024/02/12 08:25:11;;;;;;;7.85;3.40;;;;;;;16.13;51.49;100020.38;4935007;29;20038;-64
2024/02/12 08:27:36;;;;;;;11.68;3.30;;;;;;;16.16;51.40;100017.28;4950975;29;20571;-64
2024/02/12 08:30:02;;;;;;;4.47;2.72;;;;;;;16.17;51.08;100019.78;4934944;29;20055;-64
2024/02/12 08:32:28;;;;;;;8.98;3.38;;;;;;;16.17;50.47;100024.34;4934442;29;20123;-64
2024/02/12 08:34:54;;;;;;;12.48;3.38;;;;;;;16.17;51.06;100029.75;4927962;29;20107;-64
2024/02/12 08:37:19;;;;;;;7.50;2.97;;;;;;;16.21;50.83;100041.91;4915848;29;20119;-63
2024/02/12 08:39:45;;;;;;;14.65;4.03;;;;;;;16.22;50.76;100044.41;4899852;29;20028;-66
2024/02/12 08:42:10;;;;;;;7.43;3.40;;;;;;;16.26;51.04;100044.88;4911233;29;20044;-66
2024/02/12 08:44:35;;;;;;;9.93;3.83;;;;;;;16.28;51.24;100049.06;4917472;29;20463;-66
2024/02/12 08:47:01;;;;;;;19.83;3.72;;;;;;;16.34;50.24;100047.50;4932758;29;20047;-65
2024/02/12 08:49:27;;;;;;;7.10;3.65;;;;;;;16.49;51.05;100055.63;4935851;29;20036;-65
2024/02/12 08:51:53;;;;;;;11.30;3.85;;;;;;;16.60;49.72;100053.31;4935917;29;20028;-66
2024/02/12 08:54:21;;;;;;;12.30;3.88;;;;;;;16.83;49.59;100054.03;4915505;29;20523;-67
2024/02/12 08:56:46;;;;;;;13.07;4.30;;;;;;;16.93;50.19;100058.31;4900690;29;20043;-65
2024/02/12 08:59:11;;;;;;;6.72;3.55;;;;;;;16.91;49.93;100060.38;4915990;29;20424;-66
2024/02/12 09:01:38;;;;;;;7.43;3.15;;;;;;;16.91;50.12;100071.19;4915940;29;20043;-66
2024/02/12 09:04:04;;;;;;;13.00;3.30;;;;;;;16.89;49.50;100074.91;4924144;29;20040;-65
2024/02/12 09:06:29;;;;;;;4.95;2.88;;;;;;;16.89;49.76;100066.81;4915830;29;20576;-66
2024/02/12 09:08:55;;;;;;;13.43;3.80;;;;;;;16.97;50.34;100075.84;4915760;29;20040;-66
2024/02/12 09:11:20;;;;;;;6.70;2.63;;;;;;;17.02;49.60;100079.69;4915816;29;20040;-66
2024/02/12 09:13:48;;;;;;;10.65;3.72;;;;;;;17.11;49.21;100083.13;4899761;29;20039;-67
2024/02/12 09:16:14;;;;;;;9.95;3.80;;;;;;;17.25;49.45;100091.19;4911713;29;20500;-65
2024/02/12 09:18:39;;;;;;;10.35;3.22;;;;;;;17.36;49.26;100092.59;4934840;29;20031;-67
2024/02/12 09:21:05;;;;;;;10.27;3.83;;;;;;;17.42;49.09;100102.63;4934261;29;20035;-66
2024/02/12 09:23:31;;;;;;;6.95;3.35;;;;;;;17.53;49.17;100102.16;4934768;29;20410;-65
2024/02/12 09:25:56;;;;;;;11.40;3.40;;;;;;;17.64;48.65;100100.84;4934422;29;20063;-65
2024/02/12 09:28:23;;;;;;;8.18;2.78;;;;;;;17.71;49.06;100099.88;4937247;29;20067;-66
2024/02/12 09:30:49;;;;;;;9.00;3.15;;;;;;;17.83;48.22;100105.59;4937557;29;20035;-65
2024/02/12 09:33:15;;;;;;;5.68;2.25;;;;;;;17.93;48.68;100112.38;4937733;29;20058;-66
2024/02/12 09:35:41;;;;;;;6.00;2.03;;;;;;;18.01;48.12;100108.69;4937762;29;20055;-65
2024/02/12 09:38:08;;;;;;;7.63;2.53;;;;;;;18.09;48.36;100115.88;4938822;29;20044;-65
2024/02/12 09:40:33;;;;;;;4.40;2.22;;;;;;;18.12;47.65;100123.59;4938943;29;20032;-65
2024/02/12 09:43:00;;;;;;;11.13;2.88;;;;;;;18.16;48.23;100127.59;4937632;29;20499;-64
2024/02/12 09:45:31;;;;;;;7.72;2.40;;;;;;;18.18;47.98;100126.34;4937632;29;20050;-64
2024/02/12 09:47:58;;;;;;;6.55;1.42;;;;;;;18.21;47.72;100127.84;4937341;29;20467;-64
2024/02/12 09:50:25;;;;;;;6.57;2.10;;;;;;;18.13;48.07;100134.25;4937803;29;20451;-65
2024/02/12 09:52:51;;;;;;;4.80;1.52;;;;;;;18.09;48.35;100132.13;4937314;29;20043;-65
2024/02/12 09:55:17;;;;;;;6.40;2.10;;;;;;;18.04;47.96;100138.13;4938913;29;20036;-66
2024/02/12 09:57:43;;;;;;;5.10;1.90;;;;;;;17.97;48.32;100142.66;4937592;29;20090;-63
2024/02/12 10:00:12;;;;;;;8.80;1.42;;;;;;;17.83;48.49;100136.25;4937289;29;20561;-65
2024/02/12 10:02:41;;;;;;;6.05;1.70;;;;;;;17.75;48.68;100147.22;4921745;29;20048;-66
2024/02/12 10:05:10;;;;;;;4.00;1.45;;;;;;;17.62;48.51;100155.19;4921569;29;20410;-64
2024/02/12 10:07:39;;;;;;;6.88;1.60;;;;;;;17.53;48.31;100148.19;4937257;29;20064;-65
2024/02/12 10:10:08;;;;;;;5.30;2.13;;;;;;;17.46;48.05;100152.69;4937284;29;20059;-64
2024/02/12 10:12:37;;;;;;;4.68;1.60;;;;;;;17.40;47.75;100148.00;4937709;29;20056;-65
2024/02/12 10:15:05;;;;;;;6.90;1.75;;;;;;;17.54;47.87;100149.03;4921436;29;20032;-65
2024/02/12 10:17:31;;;;;;;3.85;1.55;;;;;;;17.59;47.93;100166.41;4938160;29;20038;-65
2024/02/12 10:19:57;;;;;;;4.18;1.58;;;;;;;17.64;47.81;100165.84;4937040;29;20028;-66
2024/02/12 10:22:25;;;;;;;4.28;1.73;;;;;;;17.71;47.68;100173.00;4936872;29;20063;-65
2024/02/12 10:24:51;;;;;;;10.82;2.10;;;;;;;17.90;46.95;100171.53;4936922;29;20040;-65
2024/02/12 10:27:20;;;;;;;7.32;1.45;;;;;;;17.87;47.07;100171.91;4937856;29;20044;-65
2024/02/12 10:29:58;;;;;;;2.58;1.38;;;;;;;17.91;46.89;100184.06;4936922;29;20035;-66
2024/02/12 10:32:25;;;;;;;4.32;1.48;;;;;;;17.87;47.61;100183.59;4936920;29;20036;-66
2024/02/12 10:34:53;;;;;;;7.07;1.65;;;;;;;17.95;47.05;100179.94;4936919;29;20019;-64
2024/02/12 10:37:20;;;;;;;6.32;1.45;;;;;;;17.94;47.57;100179.09;4937601;29;20103;-65
2024/02/12 10:39:46;;;;;;;4.45;1.30;;;;;;;17.93;47.33;100187.41;4937558;29;20024;-65
2024/02/12 10:42:14;;;;;;;4.03;1.60;;;;;;;17.94;47.48;100195.38;4937794;29;20031;-64
2024/02/12 10:44:39;;;;;;;6.20;1.90;;;;;;;18.42;46.38;100192.91;4938253;29;20480;-65
2024/02/12 10:47:09;;;;;;;10.07;1.70;;;;;;;18.91;45.75;100188.31;4936320;29;20035;-65
2024/02/12 10:49:38;;;;;;;7.57;1.83;;;;;;;19.65;44.65;100185.81;4924494;29;20056;-63
2024/02/12 10:52:04;;;;;;;7.32;1.83;;;;;;;19.65;45.59;100188.53;4917488;29;20016;-65
2024/02/12 10:54:29;;;;;;;5.95;1.67;;;;;;;20.11;45.24;100196.78;4933412;29;20067;-66
2024/02/12 10:56:55;;;;;;;4.13;1.83;;;;;;;20.28;44.68;100196.25;4917882;29;20496;-65
2024/02/12 10:59:20;;;;;;;6.45;1.58;;;;;;;20.11;45.53;100200.34;4917862;29;20500;-65
2024/02/12 11:01:49;;;;;;;7.07;1.45;;;;;;;19.99;45.46;100210.16;4933899;29;20131;-67
2024/02/12 11:04:17;;;;;;;4.00;1.20;;;;;;;19.92;45.22;100211.19;4933320;29;20043;-66
2024/02/12 11:06:42;;;;;;;4.30;1.35;;;;;;;19.73;45.14;100204.66;4932894;29;20408;-67
2024/02/12 11:09:11;;;;;;;4.50;1.20;;;;;;;19.64;45.28;100211.28;4933246;29;20039;-63
2024/02/12 11:11:47;;;;;;;3.88;2.35;;;;;;;19.53;45.29;100206.44;4917180;29;20032;-67
2024/02/12 11:14:18;;;;;;;5.93;1.58;;;;;;;19.55;44.78;100212.50;4936526;29;20050;-68
2024/02/12 11:16:43;;;;;;;2.60;1.30;;;;;;;19.52;44.88;100213.75;4920334;29;20110;-63
2024/02/12 11:19:16;;;;;;;5.75;1.30;;;;;;;19.58;44.77;100207.50;4935965;29;20134;-63
2024/02/12 11:21:41;;;;;;;4.10;1.40;;;;;;;19.70;45.12;100221.38;4937050;29;20035;-62
2024/02/12 11:24:08;;;;;;;6.10;1.95;;;;;;;19.74;44.50;100215.31;4936911;29;20036;-63
2024/02/12 11:26:54;;;;;;;2.55;1.23;;;;;;;19.75;44.67;100221.59;4935542;29;20174;-63
2024/02/12 11:29:19;;;;;;;2.95;1.17;;;;;;;19.72;44.72;100214.69;4936700;29;20119;-63
2024/02/12 11:31:48;;;;;;;3.70;1.23;;;;;;;19.69;44.48;100212.38;4935410;29;20558;-63
2024/02/12 11:34:18;;;;;;;2.58;0.80;;;;;;;19.61;43.96;100222.56;4934922;29;20043;-63
2024/02/12 11:36:45;;;;;;;6.32;1.00;;;;;;;19.69;44.13;100215.09;4935313;29;20496;-63
2024/02/12 11:39:11;;;;;;;5.47;1.25;;;;;;;20.29;42.92;100216.13;4936605;29;20114;-63